sensor_id;sensor_type;location;lat;lon;timestamp;pressure;altitude;pressure_sealevel;temperature;humidity
3254;BME280;1639;42.804;23.342;2023-04-24T00:00:21;73030.19;;;-148.52;62.92
3254;BME280;1639;42.804;23.342;2023-04-24T00:02:47;73030.19;;;-148.52;63.20
3254;BME280;1639;42.804;23.342;2023-04-24T00:05:15;73040.53;;;-148.52;63.43
3254;BME280;1639;42.804;23.342;2023-04-24T00:07:43;73046.75;;;-148.52;63.27
3254;BME280;1639;42.804;23.342;2023-04-24T00:10:08;73042.59;;;-148.52;63.27
3254;BME280;1639;42.804;23.342;2023-04-24T00:12:34;73063.28;;;-148.52;63.23
3254;BME280;1639;42.804;23.342;2023-04-24T00:15:00;73083.97;;;-148.52;63.89
3254;BME280;1639;42.804;23.342;2023-04-24T00:17:25;73096.38;;;-148.52;64.08
3254;BME280;1639;42.804;23.342;2023-04-24T00:19:51;73117.06;;;-148.52;64.76
3254;BME280;1639;42.804;23.342;2023-04-24T00:22:17;73119.13;;;-148.52;64.87
3254;BME280;1639;42.804;23.342;2023-04-24T00:24:43;73123.25;;;-148.52;65.29
3254;BME280;1639;42.804;23.342;2023-04-24T00:27:08;73121.19;;;-148.52;65.02
3254;BME280;1639;42.804;23.342;2023-04-24T00:29:34;73129.47;;;-148.52;64.91
3254;BME280;1639;42.804;23.342;2023-04-24T00:31:59;73131.53;;;-148.52;65.15
3254;BME280;1639;42.804;23.342;2023-04-24T00:34:25;73148.09;;;-148.52;65.39
3254;BME280;1639;42.804;23.342;2023-04-24T00:36:50;73172.91;;;-148.52;65.31
3254;BME280;1639;42.804;23.342;2023-04-24T00:39:18;73177.03;;;-148.52;65.52
3254;BME280;1639;42.804;23.342;2023-04-24T00:41:44;73193.59;;;-148.52;65.30
3254;BME280;1639;42.804;23.342;2023-04-24T00:44:10;73210.13;;;-148.52;66.13
3254;BME280;1639;42.804;23.342;2023-04-24T00:46:36;73224.63;;;-148.52;66.91
3254;BME280;1639;42.804;23.342;2023-04-24T00:49:01;73237.03;;;-148.52;67.35
3254;BME280;1639;42.804;23.342;2023-04-24T00:51:27;73257.72;;;-148.52;69.50
3254;BME280;1639;42.804;23.342;2023-04-24T00:53:52;73255.63;;;-148.52;70.88
3254;BME280;1639;42.804;23.342;2023-04-24T00:56:18;73263.91;;;-148.52;70.93
3254;BME280;1639;42.804;23.342;2023-04-24T00:58:44;73259.78;;;-148.52;70.98
3254;BME280;1639;42.804;23.342;2023-04-24T01:01:10;73249.44;;;-148.52;71.60
3254;BME280;1639;42.804;23.342;2023-04-24T01:03:36;73259.78;;;-148.52;71.77
3254;BME280;1639;42.804;23.342;2023-04-24T01:06:02;73249.44;;;-148.52;71.90
3254;BME280;1639;42.804;23.342;2023-04-24T01:08:29;73249.44;;;-148.52;71.79
3254;BME280;1639;42.804;23.342;2023-04-24T01:10:55;73265.97;;;-148.52;72.88
3254;BME280;1639;42.804;23.342;2023-04-24T01:13:22;73286.66;;;-148.52;74.35
3254;BME280;1639;42.804;23.342;2023-04-24T01:15:47;73290.81;;;-148.52;75.41
3254;BME280;1639;42.804;23.342;2023-04-24T01:18:14;73278.38;;;-148.52;75.83
3254;BME280;1639;42.804;23.342;2023-04-24T01:20:40;73274.25;;;-148.52;75.32
3254;BME280;1639;42.804;23.342;2023-04-24T01:23:08;73268.03;;;-148.52;74.73
3254;BME280;1639;42.804;23.342;2023-04-24T01:25:33;73278.38;;;-148.52;75.08
3254;BME280;1639;42.804;23.342;2023-04-24T01:27:59;73276.31;;;-148.52;75.48
3254;BME280;1639;42.804;23.342;2023-04-24T01:30:26;73265.97;;;-148.52;75.20
3254;BME280;1639;42.804;23.342;2023-04-24T01:32:52;73278.38;;;-148.52;75.04
3254;BME280;1639;42.804;23.342;2023-04-24T01:35:18;73268.03;;;-148.52;75.55
3254;BME280;1639;42.804;23.342;2023-04-24T01:37:43;73282.53;;;-148.52;75.64
3254;BME280;1639;42.804;23.342;2023-04-24T01:40:09;73282.53;;;-148.52;75.58
3254;BME280;1639;42.804;23.342;2023-04-24T01:42:34;73282.53;;;-148.52;76.41
3254;BME280;1639;42.804;23.342;2023-04-24T01:45:01;73274.25;;;-148.52;75.96
3254;BME280;1639;42.804;23.342;2023-04-24T01:47:29;73265.97;;;-148.52;76.23
3254;BME280;1639;42.804;23.342;2023-04-24T01:49:55;73251.50;;;-148.52;75.87
3254;BME280;1639;42.804;23.342;2023-04-24T01:52:21;73257.72;;;-148.52;75.12
3254;BME280;1639;42.804;23.342;2023-04-24T01:54:46;73249.44;;;-148.52;75.32
3254;BME280;1639;42.804;23.342;2023-04-24T01:57:13;73251.50;;;-148.52;75.39
3254;BME280;1639;42.804;23.342;2023-04-24T01:59:39;73270.13;;;-148.52;74.71
3254;BME280;1639;42.804;23.342;2023-04-24T02:02:04;73288.72;;;-148.52;74.26
3254;BME280;1639;42.804;23.342;2023-04-24T02:04:29;73284.59;;;-148.52;75.07
3254;BME280;1639;42.804;23.342;2023-04-24T02:06:55;73288.72;;;-148.52;75.17
3254;BME280;1639;42.804;23.342;2023-04-24T02:09:20;73294.94;;;-148.52;74.61
3254;BME280;1639;42.804;23.342;2023-04-24T02:11:46;73307.34;;;-148.52;73.51
3254;BME280;1639;42.804;23.342;2023-04-24T02:14:11;73313.56;;;-148.52;73.77
3254;BME280;1639;42.804;23.342;2023-04-24T02:16:37;73321.81;;;-148.52;74.32
3254;BME280;1639;42.804;23.342;2023-04-24T02:19:02;73328.03;;;-148.52;74.61
3254;BME280;1639;42.804;23.342;2023-04-24T02:21:28;73317.69;;;-148.52;75.34
3254;BME280;1639;42.804;23.342;2023-04-24T02:23:54;73317.69;;;-148.52;74.86
3254;BME280;1639;42.804;23.342;2023-04-24T02:26:19;73328.03;;;-148.52;75.00
3254;BME280;1639;42.804;23.342;2023-04-24T02:28:45;73323.91;;;-148.52;75.36
3254;BME280;1639;42.804;23.342;2023-04-24T02:31:10;73340.44;;;-148.52;75.40
3254;BME280;1639;42.804;23.342;2023-04-24T02:33:35;73346.66;;;-148.52;75.05
3254;BME280;1639;42.804;23.342;2023-04-24T02:36:02;73344.56;;;-148.52;75.44
3254;BME280;1639;42.804;23.342;2023-04-24T02:38:28;73348.72;;;-148.52;75.96
3254;BME280;1639;42.804;23.342;2023-04-24T02:40:53;73344.56;;;-148.52;76.39
3254;BME280;1639;42.804;23.342;2023-04-24T02:43:19;73363.19;;;-148.52;75.85
3254;BME280;1639;42.804;23.342;2023-04-24T02:45:44;73369.41;;;-148.52;76.41
3254;BME280;1639;42.804;23.342;2023-04-24T02:48:10;73369.41;;;-148.52;77.06
3254;BME280;1639;42.804;23.342;2023-04-24T02:50:35;73365.25;;;-148.52;76.81
3254;BME280;1639;42.804;23.342;2023-04-24T02:53:00;73359.06;;;-148.52;76.24
3254;BME280;1639;42.804;23.342;2023-04-24T02:55:26;73354.91;;;-148.52;76.49
3254;BME280;1639;42.804;23.342;2023-04-24T02:57:51;73359.06;;;-148.52;76.19
3254;BME280;1639;42.804;23.342;2023-04-24T03:00:17;73352.84;;;-148.52;76.49
3254;BME280;1639;42.804;23.342;2023-04-24T03:02:42;73361.13;;;-148.52;75.85
3254;BME280;1639;42.804;23.342;2023-04-24T03:05:07;73354.91;;;-148.52;76.26
3254;BME280;1639;42.804;23.342;2023-04-24T03:07:34;73379.75;;;-148.52;76.10
3254;BME280;1639;42.804;23.342;2023-04-24T03:09:59;73371.47;;;-148.52;75.72
3254;BME280;1639;42.804;23.342;2023-04-24T03:12:25;73371.47;;;-148.52;76.20
3254;BME280;1639;42.804;23.342;2023-04-24T03:14:50;73375.59;;;-148.52;75.73
3254;BME280;1639;42.804;23.342;2023-04-24T03:17:16;73377.66;;;-148.52;75.42
3254;BME280;1639;42.804;23.342;2023-04-24T03:19:41;73373.53;;;-148.52;76.14
3254;BME280;1639;42.804;23.342;2023-04-24T03:22:06;73371.47;;;-148.52;76.21
3254;BME280;1639;42.804;23.342;2023-04-24T03:24:34;73361.13;;;-148.52;76.62
3254;BME280;1639;42.804;23.342;2023-04-24T03:26:59;73354.91;;;-148.52;76.90
3254;BME280;1639;42.804;23.342;2023-04-24T03:29:25;73369.41;;;-148.52;76.45
3254;BME280;1639;42.804;23.342;2023-04-24T03:31:50;73383.88;;;-148.52;77.58
3254;BME280;1639;42.804;23.342;2023-04-24T03:34:16;73398.34;;;-148.52;79.24
3254;BME280;1639;42.804;23.342;2023-04-24T03:36:41;73406.63;;;-148.52;81.88
3254;BME280;1639;42.804;23.342;2023-04-24T03:39:07;73385.94;;;-148.52;81.65
3254;BME280;1639;42.804;23.342;2023-04-24T03:41:32;73377.66;;;-148.52;81.64
3254;BME280;1639;42.804;23.342;2023-04-24T03:43:58;73357.00;;;-148.52;81.34
3254;BME280;1639;42.804;23.342;2023-04-24T03:46:23;73342.50;;;-148.52;81.26
3254;BME280;1639;42.804;23.342;2023-04-24T03:48:49;73338.38;;;-148.52;81.82
3254;BME280;1639;42.804;23.342;2023-04-24T03:51:14;73323.91;;;-148.52;80.71
3254;BME280;1639;42.804;23.342;2023-04-24T03:53:40;73303.22;;;-148.52;80.87
3254;BME280;1639;42.804;23.342;2023-04-24T03:56:05;73290.81;;;-148.52;80.45
3254;BME280;1639;42.804;23.342;2023-04-24T03:58:31;73297.00;;;-148.52;80.89
3254;BME280;1639;42.804;23.342;2023-04-24T04:00:56;73286.66;;;-148.52;81.12
3254;BME280;1639;42.804;23.342;2023-04-24T04:03:23;73288.72;;;-148.52;81.79
3254;BME280;1639;42.804;23.342;2023-04-24T04:05:48;73270.13;;;-148.52;80.78
3254;BME280;1639;42.804;23.342;2023-04-24T04:08:14;73251.50;;;-148.52;80.66
3254;BME280;1639;42.804;23.342;2023-04-24T04:10:40;73241.16;;;-148.52;80.38
3254;BME280;1639;42.804;23.342;2023-04-24T04:13:05;73230.81;;;-148.52;80.30
3254;BME280;1639;42.804;23.342;2023-04-24T04:15:31;73249.44;;;-148.52;80.62
3254;BME280;1639;42.804;23.342;2023-04-24T04:17:57;73245.28;;;-148.52;80.96
3254;BME280;1639;42.804;23.342;2023-04-24T04:20:22;73220.47;;;-148.52;79.98
3254;BME280;1639;42.804;23.342;2023-04-24T04:22:48;73212.19;;;-148.52;78.72
3254;BME280;1639;42.804;23.342;2023-04-24T04:25:13;73197.72;;;-148.52;77.33
3254;BME280;1639;42.804;23.342;2023-04-24T04:27:39;73203.94;;;-148.52;78.30
3254;BME280;1639;42.804;23.342;2023-04-24T04:30:07;73197.72;;;-148.52;79.24
3254;BME280;1639;42.804;23.342;2023-04-24T04:32:34;73208.06;;;-148.52;80.11
3254;BME280;1639;42.804;23.342;2023-04-24T04:35:00;73199.78;;;-148.52;79.21
3254;BME280;1639;42.804;23.342;2023-04-24T04:37:30;73181.19;;;-148.52;79.35
3254;BME280;1639;42.804;23.342;2023-04-24T04:39:56;73158.44;;;-148.52;79.40
3254;BME280;1639;42.804;23.342;2023-04-24T04:42:23;73154.28;;;-148.52;80.11
3254;BME280;1639;42.804;23.342;2023-04-24T04:44:49;73135.66;;;-148.52;79.92
3254;BME280;1639;42.804;23.342;2023-04-24T04:47:15;73110.84;;;-148.52;78.41
3254;BME280;1639;42.804;23.342;2023-04-24T04:49:41;73088.09;;;-148.52;78.85
3254;BME280;1639;42.804;23.342;2023-04-24T04:52:06;73088.09;;;-148.52;78.81
3254;BME280;1639;42.804;23.342;2023-04-24T04:54:32;73083.97;;;-148.52;77.75
3254;BME280;1639;42.804;23.342;2023-04-24T04:56:57;73096.38;;;-148.52;78.22
3254;BME280;1639;42.804;23.342;2023-04-24T04:59:23;73081.91;;;-148.52;77.33
3254;BME280;1639;42.804;23.342;2023-04-24T05:01:48;73057.09;;;-148.52;76.54
3254;BME280;1639;42.804;23.342;2023-04-24T05:04:14;73034.34;;;-148.52;76.11
3254;BME280;1639;42.804;23.342;2023-04-24T05:06:39;73034.34;;;-148.52;76.10
3254;BME280;1639;42.804;23.342;2023-04-24T05:09:05;73015.72;;;-148.52;73.64
3254;BME280;1639;42.804;23.342;2023-04-24T05:11:30;72980.56;;;-148.52;72.25
3254;BME280;1639;42.804;23.342;2023-04-24T05:13:55;72961.94;;;-148.52;71.35
3254;BME280;1639;42.804;23.342;2023-04-24T05:16:21;72935.06;;;-148.52;70.65
3254;BME280;1639;42.804;23.342;2023-04-24T05:18:46;72918.50;;;-148.52;71.94
3254;BME280;1639;42.804;23.342;2023-04-24T05:21:12;72912.31;;;-148.52;70.60
3254;BME280;1639;42.804;23.342;2023-04-24T05:23:37;72912.31;;;-148.52;68.19
3254;BME280;1639;42.804;23.342;2023-04-24T05:26:02;72901.97;;;-148.52;67.06
3254;BME280;1639;42.804;23.342;2023-04-24T05:28:28;72885.41;;;-148.52;65.58
3254;BME280;1639;42.804;23.342;2023-04-24T05:30:54;72852.31;;;-148.52;69.96
3254;BME280;1639;42.804;23.342;2023-04-24T05:33:21;72856.47;;;-148.52;70.33
3254;BME280;1639;42.804;23.342;2023-04-24T05:35:47;72839.91;;;-148.52;71.08
3254;BME280;1639;42.804;23.342;2023-04-24T05:38:13;72833.72;;;-148.52;69.36
3254;BME280;1639;42.804;23.342;2023-04-24T05:40:39;72831.66;;;-148.52;66.31
3254;BME280;1639;42.804;23.342;2023-04-24T05:43:04;72831.66;;;-148.52;66.83
3254;BME280;1639;42.804;23.342;2023-04-24T05:45:30;72839.91;;;-148.52;63.44
3254;BME280;1639;42.804;23.342;2023-04-24T05:47:55;72842.00;;;-148.52;62.24
3254;BME280;1639;42.804;23.342;2023-04-24T05:50:21;72839.91;;;-148.52;61.94
3254;BME280;1639;42.804;23.342;2023-04-24T05:52:46;72854.41;;;-148.52;61.83
3254;BME280;1639;42.804;23.342;2023-04-24T05:55:12;72839.91;;;-148.52;62.10
3254;BME280;1639;42.804;23.342;2023-04-24T05:57:38;72842.00;;;-148.52;61.89
3254;BME280;1639;42.804;23.342;2023-04-24T06:00:05;72839.91;;;-148.52;61.10
3254;BME280;1639;42.804;23.342;2023-04-24T06:02:31;72808.91;;;-148.52;58.98
3254;BME280;1639;42.804;23.342;2023-04-24T06:04:58;72794.41;;;-148.52;59.12
3254;BME280;1639;42.804;23.342;2023-04-24T06:07:25;72779.94;;;-148.52;58.64
3254;BME280;1639;42.804;23.342;2023-04-24T06:09:51;72765.47;;;-148.52;59.86
3254;BME280;1639;42.804;23.342;2023-04-24T06:12:17;72736.50;;;-148.52;59.56
3254;BME280;1639;42.804;23.342;2023-04-24T06:14:42;72701.34;;;-148.52;60.30
3254;BME280;1639;42.804;23.342;2023-04-24T06:17:08;72705.50;;;-148.52;54.06
3254;BME280;1639;42.804;23.342;2023-04-24T06:19:33;72695.16;;;-148.52;53.78
3254;BME280;1639;42.804;23.342;2023-04-24T06:21:59;72678.59;;;-148.52;53.09
3254;BME280;1639;42.804;23.342;2023-04-24T06:24:28;72643.44;;;-148.52;52.93
3254;BME280;1639;42.804;23.342;2023-04-24T06:26:53;72608.28;;;-148.52;51.81
3254;BME280;1639;42.804;23.342;2023-04-24T06:29:19;72657.94;;;-148.52;50.90
3254;BME280;1639;42.804;23.342;2023-04-24T06:31:44;72674.47;;;-148.52;52.78
3254;BME280;1639;42.804;23.342;2023-04-24T06:34:10;72682.75;;;-148.52;52.78
3254;BME280;1639;42.804;23.342;2023-04-24T06:36:35;72645.53;;;-148.52;52.69
3254;BME280;1639;42.804;23.342;2023-04-24T06:39:01;72624.84;;;-148.52;52.42
3254;BME280;1639;42.804;23.342;2023-04-24T06:41:27;72597.97;;;-148.52;52.50
3254;BME280;1639;42.804;23.342;2023-04-24T06:43:53;72579.34;;;-148.52;52.47
3254;BME280;1639;42.804;23.342;2023-04-24T06:46:19;72564.88;;;-148.52;52.42
3254;BME280;1639;42.804;23.342;2023-04-24T06:48:47;72554.53;;;-148.52;50.99
3254;BME280;1639;42.804;23.342;2023-04-24T06:51:12;72569.00;;;-148.52;52.72
3254;BME280;1639;42.804;23.342;2023-04-24T06:53:38;72583.47;;;-148.52;54.29
3254;BME280;1639;42.804;23.342;2023-04-24T06:56:03;72566.94;;;-148.52;52.55
3254;BME280;1639;42.804;23.342;2023-04-24T06:58:30;72571.06;;;-148.52;52.21
3254;BME280;1639;42.804;23.342;2023-04-24T07:00:55;72641.38;;;-148.52;55.50
3254;BME280;1639;42.804;23.342;2023-04-24T07:03:21;72620.69;;;-148.52;54.13
3254;BME280;1639;42.804;23.342;2023-04-24T07:05:46;72595.88;;;-148.52;53.06
3254;BME280;1639;42.804;23.342;2023-04-24T07:08:12;72600.03;;;-148.52;56.33
3254;BME280;1639;42.804;23.342;2023-04-24T07:10:39;72533.84;;;-148.52;53.56
3254;BME280;1639;42.804;23.342;2023-04-24T07:13:04;72473.88;;;-148.52;52.92
3254;BME280;1639;42.804;23.342;2023-04-24T07:15:29;72434.59;;;-148.52;51.19
3254;BME280;1639;42.804;23.342;2023-04-24T07:17:55;72480.09;;;-148.52;50.72
3254;BME280;1639;42.804;23.342;2023-04-24T07:20:21;72500.75;;;-148.52;50.96
3254;BME280;1639;42.804;23.342;2023-04-24T07:22:46;72442.84;;;-148.52;52.02
3254;BME280;1639;42.804;23.342;2023-04-24T07:25:13;72397.38;;;-148.52;50.35
3254;BME280;1639;42.804;23.342;2023-04-24T07:27:38;72424.25;;;-148.52;48.45
3254;BME280;1639;42.804;23.342;2023-04-24T07:30:04;72351.88;;;-148.52;50.55
3254;BME280;1639;42.804;23.342;2023-04-24T07:32:30;72296.03;;;-148.52;50.07
3254;BME280;1639;42.804;23.342;2023-04-24T07:34:55;72322.91;;;-148.52;48.55
3254;BME280;1639;42.804;23.342;2023-04-24T07:37:21;72265.03;;;-148.52;47.13
3254;BME280;1639;42.804;23.342;2023-04-24T07:39:46;72221.59;;;-148.52;47.51
3254;BME280;1639;42.804;23.342;2023-04-24T07:42:12;72227.78;;;-148.52;45.52
3254;BME280;1639;42.804;23.342;2023-04-24T07:44:38;72184.38;;;-148.52;45.44
3254;BME280;1639;42.804;23.342;2023-04-24T07:47:03;72145.09;;;-148.52;46.66
3254;BME280;1639;42.804;23.342;2023-04-24T07:49:29;72153.34;;;-148.52;46.11
3254;BME280;1639;42.804;23.342;2023-04-24T07:51:54;72186.44;;;-148.52;45.15
3254;BME280;1639;42.804;23.342;2023-04-24T07:54:20;72171.97;;;-148.52;45.66
3254;BME280;1639;42.804;23.342;2023-04-24T07:56:45;72180.25;;;-148.52;44.50
3254;BME280;1639;42.804;23.342;2023-04-24T07:59:11;72171.97;;;-148.52;44.68
3254;BME280;1639;42.804;23.342;2023-04-24T08:01:36;72171.97;;;-148.52;45.45
3254;BME280;1639;42.804;23.342;2023-04-24T08:04:02;72101.66;;;-148.52;45.71
3254;BME280;1639;42.804;23.342;2023-04-24T08:06:27;72091.31;;;-148.52;43.05
3254;BME280;1639;42.804;23.342;2023-04-24T08:08:56;72045.84;;;-148.52;44.10
3254;BME280;1639;42.804;23.342;2023-04-24T08:11:21;72033.44;;;-148.52;43.12
3254;BME280;1639;42.804;23.342;2023-04-24T08:13:47;72029.28;;;-148.52;44.98
3254;BME280;1639;42.804;23.342;2023-04-24T08:16:12;72000.34;;;-148.52;44.02
3254;BME280;1639;42.804;23.342;2023-04-24T08:18:38;71967.25;;;-148.52;43.33
3254;BME280;1639;42.804;23.342;2023-04-24T08:21:04;71954.84;;;-148.52;41.55
3254;BME280;1639;42.804;23.342;2023-04-24T08:23:29;71913.50;;;-148.52;41.79
3254;BME280;1639;42.804;23.342;2023-04-24T08:25:55;71938.31;;;-148.52;42.55
3254;BME280;1639;42.804;23.342;2023-04-24T08:28:20;71925.91;;;-148.52;41.76
3254;BME280;1639;42.804;23.342;2023-04-24T08:30:46;71909.38;;;-148.52;40.83
3254;BME280;1639;42.804;23.342;2023-04-24T08:33:20;71905.22;;;-148.52;41.73
3254;BME280;1639;42.804;23.342;2023-04-24T08:35:45;71899.03;;;-148.52;41.14
3254;BME280;1639;42.804;23.342;2023-04-24T08:38:10;71845.28;;;-148.52;42.07
3254;BME280;1639;42.804;23.342;2023-04-24T08:40:36;71812.19;;;-148.52;41.13
3254;BME280;1639;42.804;23.342;2023-04-24T08:43:03;71785.31;;;-148.52;39.77
3254;BME280;1639;42.804;23.342;2023-04-24T08:45:29;71752.22;;;-148.52;42.50
3254;BME280;1639;42.804;23.342;2023-04-24T08:47:55;71715.00;;;-148.52;40.76
3254;BME280;1639;42.804;23.342;2023-04-24T08:50:21;71735.69;;;-148.52;40.36
3254;BME280;1639;42.804;23.342;2023-04-24T08:52:49;71712.94;;;-148.52;39.96
3254;BME280;1639;42.804;23.342;2023-04-24T08:55:16;71729.50;;;-148.52;40.09
3254;BME280;1639;42.804;23.342;2023-04-24T08:57:48;71715.00;;;-148.52;39.09
3254;BME280;1639;42.804;23.342;2023-04-24T09:00:15;71688.13;;;-148.52;40.73
3254;BME280;1639;42.804;23.342;2023-04-24T09:02:42;71702.59;;;-148.52;39.72
3254;BME280;1639;42.804;23.342;2023-04-24T09:05:08;71692.28;;;-148.52;40.82
3254;BME280;1639;42.804;23.342;2023-04-24T09:07:35;71764.63;;;-148.52;42.82
3254;BME280;1639;42.804;23.342;2023-04-24T09:10:04;71793.59;;;-148.52;40.92
3254;BME280;1639;42.804;23.342;2023-04-24T09:12:31;71733.63;;;-148.52;41.37
3254;BME280;1639;42.804;23.342;2023-04-24T09:14:56;71710.88;;;-148.52;39.62
3254;BME280;1639;42.804;23.342;2023-04-24T09:17:22;71686.06;;;-148.52;39.96
3254;BME280;1639;42.804;23.342;2023-04-24T09:19:52;71694.34;;;-148.52;38.49
3254;BME280;1639;42.804;23.342;2023-04-24T09:22:18;71677.78;;;-148.52;38.85
3254;BME280;1639;42.804;23.342;2023-04-24T09:24:45;71630.25;;;-148.52;39.30
3254;BME280;1639;42.804;23.342;2023-04-24T09:27:11;71586.81;;;-148.52;38.31
3254;BME280;1639;42.804;23.342;2023-04-24T09:29:37;71547.53;;;-148.52;38.81
3254;BME280;1639;42.804;23.342;2023-04-24T09:32:19;71541.34;;;-148.52;38.79
3254;BME280;1639;42.804;23.342;2023-04-24T09:34:47;71562.03;;;-148.52;38.33
3254;BME280;1639;42.804;23.342;2023-04-24T09:37:27;71603.38;;;-148.52;38.10
3254;BME280;1639;42.804;23.342;2023-04-24T09:40:18;71576.50;;;-148.52;40.22
3254;BME280;1639;42.804;23.342;2023-04-24T09:43:05;71686.06;;;-148.52;42.35
3254;BME280;1639;42.804;23.342;2023-04-24T09:45:36;71706.75;;;-148.52;41.29
3254;BME280;1639;42.804;23.342;2023-04-24T09:48:01;71677.78;;;-148.52;40.53
3254;BME280;1639;42.804;23.342;2023-04-24T09:50:30;71638.50;;;-148.52;40.40
3254;BME280;1639;42.804;23.342;2023-04-24T09:53:04;71607.50;;;-148.52;39.82
3254;BME280;1639;42.804;23.342;2023-04-24T09:55:31;71551.69;;;-148.52;38.46
3254;BME280;1639;42.804;23.342;2023-04-24T09:57:58;71537.22;;;-148.52;36.95
3254;BME280;1639;42.804;23.342;2023-04-24T10:00:27;71526.88;;;-148.52;40.81
3254;BME280;1639;42.804;23.342;2023-04-24T10:02:56;71533.06;;;-148.52;38.76
3254;BME280;1639;42.804;23.342;2023-04-24T10:05:40;71564.09;;;-148.52;40.03
3254;BME280;1639;42.804;23.342;2023-04-24T10:08:07;71549.63;;;-148.52;38.58
3254;BME280;1639;42.804;23.342;2023-04-24T10:10:35;71595.09;;;-148.52;40.09
3254;BME280;1639;42.804;23.342;2023-04-24T10:13:03;71549.63;;;-148.52;38.68
3254;BME280;1639;42.804;23.342;2023-04-24T10:15:29;71489.66;;;-148.52;38.46
3254;BME280;1639;42.804;23.342;2023-04-24T10:17:57;71464.84;;;-148.52;38.12
3254;BME280;1639;42.804;23.342;2023-04-24T10:20:26;71446.25;;;-148.52;37.41
3254;BME280;1639;42.804;23.342;2023-04-24T10:22:53;71495.84;;;-148.52;39.51
3254;BME280;1639;42.804;23.342;2023-04-24T10:25:21;71533.06;;;-148.52;39.56
3254;BME280;1639;42.804;23.342;2023-04-24T10:27:47;71553.75;;;-148.52;39.99
3254;BME280;1639;42.804;23.342;2023-04-24T10:30:14;71491.72;;;-148.52;39.20
3254;BME280;1639;42.804;23.342;2023-04-24T10:32:39;71446.25;;;-148.52;37.78
3254;BME280;1639;42.804;23.342;2023-04-24T10:35:08;71423.50;;;-148.52;36.62
3254;BME280;1639;42.804;23.342;2023-04-24T10:37:39;71380.09;;;-148.52;36.77
3254;BME280;1639;42.804;23.342;2023-04-24T10:40:09;71363.53;;;-148.52;36.06
3254;BME280;1639;42.804;23.342;2023-04-24T10:42:35;71375.94;;;-148.52;36.17
3254;BME280;1639;42.804;23.342;2023-04-24T10:45:06;71375.94;;;-148.52;36.85
3254;BME280;1639;42.804;23.342;2023-04-24T10:47:40;71423.50;;;-148.52;36.57
3254;BME280;1639;42.804;23.342;2023-04-24T10:50:12;71549.63;;;-148.52;38.76
3254;BME280;1639;42.804;23.342;2023-04-24T10:52:45;71537.22;;;-148.52;39.34
3254;BME280;1639;42.804;23.342;2023-04-24T10:55:12;71462.78;;;-148.52;38.33
3254;BME280;1639;42.804;23.342;2023-04-24T10:57:38;71437.97;;;-148.52;36.49
3254;BME280;1639;42.804;23.342;2023-04-24T11:00:13;71427.63;;;-148.52;37.18
3254;BME280;1639;42.804;23.342;2023-04-24T11:02:40;71477.25;;;-148.52;38.75
3254;BME280;1639;42.804;23.342;2023-04-24T11:05:08;71446.25;;;-148.52;36.49
3254;BME280;1639;42.804;23.342;2023-04-24T11:10:44;71411.09;;;-148.52;37.20
3254;BME280;1639;42.804;23.342;2023-04-24T11:13:10;71404.91;;;-148.52;35.32
3254;BME280;1639;42.804;23.342;2023-04-24T11:15:35;71388.34;;;-148.52;34.54
3254;BME280;1639;42.804;23.342;2023-04-24T11:18:01;71361.47;;;-148.52;34.79
3254;BME280;1639;42.804;23.342;2023-04-24T11:20:27;71361.47;;;-148.52;36.46
3254;BME280;1639;42.804;23.342;2023-04-24T11:22:55;71347.00;;;-148.52;35.09
3254;BME280;1639;42.804;23.342;2023-04-24T11:25:23;71357.34;;;-148.52;35.03
3254;BME280;1639;42.804;23.342;2023-04-24T11:27:49;71369.75;;;-148.52;35.79
3254;BME280;1639;42.804;23.342;2023-04-24T11:30:19;71392.50;;;-148.52;35.06
3254;BME280;1639;42.804;23.342;2023-04-24T11:32:50;71404.91;;;-148.52;35.54
3254;BME280;1639;42.804;23.342;2023-04-24T11:35:19;71402.81;;;-148.52;37.32
3254;BME280;1639;42.804;23.342;2023-04-24T11:37:50;71446.25;;;-148.52;37.70
3254;BME280;1639;42.804;23.342;2023-04-24T11:40:17;71479.31;;;-148.52;38.93
3254;BME280;1639;42.804;23.342;2023-04-24T11:42:50;71450.38;;;-148.52;39.21
3254;BME280;1639;42.804;23.342;2023-04-24T11:45:17;71431.78;;;-148.52;38.96
3254;BME280;1639;42.804;23.342;2023-04-24T11:47:43;71390.41;;;-148.52;39.64
3254;BME280;1639;42.804;23.342;2023-04-24T11:50:20;71384.22;;;-148.52;38.90
3254;BME280;1639;42.804;23.342;2023-04-24T11:52:48;71363.53;;;-148.52;37.18
3254;BME280;1639;42.804;23.342;2023-04-24T11:57:38;71328.41;;;-148.52;38.27
3254;BME280;1639;42.804;23.342;2023-04-24T12:00:04;71351.13;;;-148.52;35.99
3254;BME280;1639;42.804;23.342;2023-04-24T12:02:30;71365.63;;;-148.52;37.29
3254;BME280;1639;42.804;23.342;2023-04-24T12:04:56;71396.63;;;-148.52;37.35
3254;BME280;1639;42.804;23.342;2023-04-24T12:07:22;71392.50;;;-148.52;36.97
3254;BME280;1639;42.804;23.342;2023-04-24T12:09:55;71406.97;;;-148.52;37.74
3254;BME280;1639;42.804;23.342;2023-04-24T12:12:20;71392.50;;;-148.52;38.23
3254;BME280;1639;42.804;23.342;2023-04-24T12:14:53;71363.53;;;-148.52;36.96
3254;BME280;1639;42.804;23.342;2023-04-24T12:17:27;71355.28;;;-148.52;37.02
3254;BME280;1639;42.804;23.342;2023-04-24T12:20:00;71369.75;;;-148.52;36.55
3254;BME280;1639;42.804;23.342;2023-04-24T12:22:26;71384.22;;;-148.52;38.50
3254;BME280;1639;42.804;23.342;2023-04-24T12:24:56;71392.50;;;-148.52;37.11
3254;BME280;1639;42.804;23.342;2023-04-24T12:27:22;71413.16;;;-148.52;37.02
3254;BME280;1639;42.804;23.342;2023-04-24T12:29:52;71411.09;;;-148.52;37.34
3254;BME280;1639;42.804;23.342;2023-04-24T12:32:17;71429.69;;;-148.52;37.86
3254;BME280;1639;42.804;23.342;2023-04-24T12:34:43;71442.09;;;-148.52;37.36
3254;BME280;1639;42.804;23.342;2023-04-24T12:37:11;71450.38;;;-148.52;38.67
3254;BME280;1639;42.804;23.342;2023-04-24T12:39:37;71460.72;;;-148.52;38.44
3254;BME280;1639;42.804;23.342;2023-04-24T12:42:03;71462.78;;;-148.52;38.46
3254;BME280;1639;42.804;23.342;2023-04-24T12:44:29;71452.44;;;-148.52;37.62
3254;BME280;1639;42.804;23.342;2023-04-24T12:46:55;71456.56;;;-148.52;36.30
3254;BME280;1639;42.804;23.342;2023-04-24T12:49:21;71419.38;;;-148.52;38.57
3254;BME280;1639;42.804;23.342;2023-04-24T12:51:46;71396.63;;;-148.52;37.48